Aérodrome :
LOGIN :

S'inscrire | Disclaimer

   EN    FR    IT 

 










Légende :    VFR   VFR Marginal   IFR   IFR Intensif   IFR Très Intensif
Visi : 
Plafond : 
>= 8 km
>= 3000ft
5 à 8 km
1000 à 3000 ft
1500m à 5 km
500 à 1000 ft
800 à 1500m
200 à 500 ft
< 800m
< 200 ft
Symboles :   Orages  Brouillard  Fortes neiges  Fortes précipitations  Vent > 20 kt
SIGMETs :   Divers  Orages  Givrage  Turbulence  Onde Orograph.  Cendres Volcan.






- Altitude de l'aérodrome : 119 ft
- Code IATA : WAT


EIWF - Waterford

DERNIER METAR :
  • 241800Z 32014G24KT 290V350 9999 FEW039 07/03 Q1007

METARs EXPIRÉS :
  • 241730Z 30009KT 260V340 9999 SCT032 08/03 Q1007
  • 241700Z 31013KT 280V340 9999 FEW032 08/03 Q1006
  • 241630Z 32014KT 290V350 9999 SCT033 08/04 Q1006
  • 241600Z 32016G26KT 9999 -SHRA FEW018CB SCT040 09/04 Q1006
  • 241530Z 32016KT 290V360 9999 FEW018CB BKN030 10/04 Q1006

TAF TAF EIWF
Valide du 24 à 18h jusqu'au 25 à 03h UTC


241700Z 2418/2503 30015KT 9999 FEW018 BKN025
PROB30
TEMPO 2418/2503 31020G30KT 5000 -SHRAGS FEW018CB BKN020
ATIS : +353 51 877 000



MET'MAP, la Météo Aéronautique d'un coup d'oeil ! - Copyright ORBIFLY Décembre 2007 - Disclaimer

ORBIFLY MET'MAP TEAM :

Programmation & Développement : Alexandra Zaïnal
Sur une idée originale de : Baudouin d'Aumeries
Assistance à la programmation : Marc-Olivier Méhu
Soutien technique & logistique : Manuel Goepfert

Contact : metmap@orbifly.com




SOURCES & CREDITS :

   NOAA